createdAt,value
2019-01-30T04:26:15.803Z,5.80
2019-01-30T04:28:46.114Z,6.30
2019-01-30T04:31:16.378Z,6.03
2019-01-30T04:33:46.665Z,6.20
2019-01-30T04:36:16.919Z,5.90
2019-01-30T04:38:47.228Z,5.87
2019-01-30T04:41:17.468Z,6.07
2019-01-30T04:43:47.747Z,5.73
2019-01-30T04:46:18.009Z,5.87
2019-01-30T04:48:48.308Z,5.73
2019-01-30T04:51:18.587Z,5.73
2019-01-30T04:53:48.881Z,6.50
2019-01-30T04:56:19.169Z,6.03
2019-01-30T04:58:49.438Z,5.80
2019-01-30T05:01:19.738Z,6.07
2019-01-30T05:03:50.021Z,5.87
2019-01-30T05:06:20.321Z,6.00
2019-01-30T05:08:50.600Z,6.23
2019-01-30T05:11:20.895Z,5.80
2019-01-30T05:13:51.181Z,6.00
2019-01-30T05:16:21.492Z,5.80
2019-01-30T05:18:51.768Z,6.23
2019-01-30T05:21:22.049Z,5.70
2019-01-30T05:23:52.333Z,6.27
2019-01-30T05:26:24.138Z,6.37
2019-01-30T05:28:54.460Z,6.53
2019-01-30T05:31:24.708Z,6.47
2019-01-30T05:33:54.996Z,6.63
2019-01-30T05:36:25.261Z,6.27
2019-01-30T05:38:55.557Z,6.33
2019-01-30T05:41:26.719Z,6.97
2019-01-30T05:43:57.987Z,6.37
2019-01-30T05:46:28.534Z,7.33
2019-01-30T05:48:59.500Z,6.53
2019-01-30T05:51:31.408Z,6.97
2019-01-30T05:54:01.885Z,6.60
2019-01-30T05:56:32.184Z,6.50
2019-01-30T05:59:03.533Z,6.37
2019-01-30T06:01:34.104Z,6.70
2019-01-30T06:04:04.819Z,6.77
2019-01-30T06:06:35.683Z,6.70
2019-01-30T06:09:07.749Z,6.70
2019-01-30T06:11:38.130Z,6.77
2019-01-30T06:14:11.591Z,6.43
2019-01-30T06:16:42.412Z,7.00
2019-01-30T06:19:19.717Z,6.80
2019-01-30T06:21:46.965Z,6.50
2019-01-30T06:24:17.302Z,7.60
2019-01-30T06:26:47.577Z,6.77
2019-01-30T06:29:17.979Z,7.07
2019-01-30T06:31:48.426Z,7.50
2019-01-30T06:34:19.480Z,6.80
2019-01-30T06:36:49.937Z,6.63
2019-01-30T06:39:20.233Z,7.60
2019-01-30T06:41:50.991Z,7.87
2019-01-30T06:44:21.345Z,8.10
2019-01-30T06:46:51.697Z,8.13
2019-01-30T06:49:22.006Z,7.80
2019-01-30T06:51:52.297Z,8.23
2019-01-30T06:54:31.969Z,8.73
2019-01-30T06:57:04.409Z,9.03
2019-01-30T06:59:36.406Z,9.10
2019-01-30T07:02:07.513Z,8.73
2019-01-30T07:04:37.847Z,8.90
2019-01-30T07:07:08.619Z,9.60
2019-01-30T07:09:38.974Z,9.43
2019-01-30T07:12:09.256Z,9.40
2019-01-30T07:14:39.563Z,10.30
2019-01-30T07:17:10.007Z,10.00
2019-01-30T07:19:40.289Z,10.73
2019-01-30T07:22:10.559Z,10.03
2019-01-30T07:24:40.914Z,10.00
2019-01-30T07:27:11.174Z,9.77
2019-01-30T07:29:41.469Z,10.07
2019-01-30T07:32:11.770Z,10.33
2019-01-30T07:34:42.049Z,10.47
2019-01-30T07:37:12.346Z,10.87
2019-01-30T07:39:42.622Z,10.97
2019-01-30T07:42:12.930Z,10.23
2019-01-30T07:44:50.466Z,10.80
2019-01-30T07:47:16.084Z,11.03
2019-01-30T07:49:46.356Z,10.67
2019-01-30T07:52:16.761Z,11.53
2019-01-30T07:54:47.036Z,11.03
2019-01-30T07:57:17.371Z,10.97
2019-01-30T07:59:47.663Z,10.60
2019-01-30T08:02:17.951Z,10.47
2019-01-30T08:04:48.207Z,11.73
2019-01-30T08:07:18.521Z,11.07
2019-01-30T08:09:48.785Z,10.77
2019-01-30T08:12:19.110Z,10.67
2019-01-30T08:14:49.395Z,11.10
2019-01-30T08:17:21.059Z,10.70
2019-01-30T08:19:52.045Z,11.13
2019-01-30T08:22:22.425Z,11.03
2019-01-30T08:24:52.714Z,10.93
2019-01-30T08:27:23.393Z,11.23
2019-01-30T08:29:54.044Z,11.30
2019-01-30T08:32:24.630Z,11.17
2019-01-30T08:34:55.029Z,10.73
2019-01-30T08:37:25.350Z,10.33
2019-01-30T08:39:55.601Z,10.90
2019-01-30T08:42:25.942Z,11.43
2019-01-30T08:44:56.378Z,11.23
2019-01-30T08:47:28.866Z,11.13
2019-01-30T08:49:59.117Z,10.47
2019-01-30T08:52:29.429Z,10.97
2019-01-30T08:54:59.977Z,10.87
2019-01-30T08:57:30.731Z,11.60
2019-01-30T09:00:01.176Z,11.17
2019-01-30T09:02:31.728Z,11.30
2019-01-30T09:05:02.019Z,11.10
2019-01-30T09:07:32.308Z,11.43
2019-01-30T09:10:02.786Z,11.50
2019-01-30T09:12:33.102Z,11.63
2019-01-30T09:15:03.359Z,12.23
2019-01-30T09:17:33.707Z,11.30
2019-01-30T09:20:04.345Z,12.20
2019-01-30T09:22:34.646Z,11.80
2019-01-30T09:25:05.907Z,11.80
2019-01-30T09:27:36.237Z,11.50
2019-01-30T09:30:10.477Z,12.00
2019-01-30T09:32:40.775Z,12.10
2019-01-30T09:35:12.389Z,12.47
2019-01-30T09:37:42.678Z,12.53
2019-01-30T09:40:13.551Z,12.43
2019-01-30T09:42:45.618Z,11.50
2019-01-30T09:45:16.369Z,12.37
2019-01-30T09:47:46.655Z,12.33
2019-01-30T09:50:18.928Z,12.90
2019-01-30T09:52:49.395Z,11.80
2019-01-30T09:55:19.679Z,12.37
2019-01-30T09:57:50.756Z,11.67
2019-01-30T10:00:32.096Z,12.00
2019-01-30T10:03:03.468Z,12.57
2019-01-30T10:05:33.860Z,11.63
2019-01-30T10:08:04.785Z,13.27
2019-01-30T10:10:36.727Z,13.33
2019-01-30T10:13:07.244Z,12.63
2019-01-30T10:15:42.047Z,11.70
2019-01-30T10:18:13.504Z,11.87
2019-01-30T10:20:45.843Z,12.20
2019-01-30T10:23:16.297Z,12.20
2019-01-30T10:25:47.877Z,12.67
2019-01-30T10:28:18.160Z,11.93
2019-01-30T10:30:49.393Z,11.97
2019-01-30T10:33:20.789Z,12.43
2019-01-30T10:35:52.793Z,11.53
2019-01-30T10:38:24.354Z,12.40
2019-01-30T10:40:55.778Z,11.27
2019-01-30T10:43:28.592Z,11.43
2019-01-30T10:46:00.315Z,11.70
2019-01-30T10:48:30.715Z,11.93
2019-01-30T10:51:01.601Z,12.10
2019-01-30T10:53:33.050Z,11.50
2019-01-30T10:56:05.282Z,11.13
2019-01-30T10:58:37.031Z,11.07
2019-01-30T11:01:08.563Z,10.80
2019-01-30T11:03:41.867Z,10.40
2019-01-30T11:06:13.389Z,10.13
2019-01-30T11:08:44.525Z,10.17
2019-01-30T11:11:16.807Z,10.87
2019-01-30T11:13:48.269Z,10.30
2019-01-30T11:16:19.159Z,9.67
2019-01-30T11:18:49.430Z,9.87
2019-01-30T11:21:23.110Z,10.10
2019-01-30T11:23:53.536Z,9.43
2019-01-30T11:26:23.828Z,9.70
2019-01-30T11:28:54.087Z,9.47
2019-01-30T11:31:24.389Z,9.57
2019-01-30T11:33:54.682Z,9.23
2019-01-30T11:36:24.974Z,9.47
2019-01-30T11:38:55.326Z,9.40
2019-01-30T11:41:25.845Z,9.27
2019-01-30T11:43:56.500Z,8.60
2019-01-30T11:46:27.274Z,9.33
2019-01-30T11:48:58.071Z,9.20
2019-01-30T11:51:28.883Z,8.87
2019-01-30T11:53:59.134Z,9.33
2019-01-30T11:56:30.859Z,8.83
2019-01-30T11:59:01.389Z,9.10
2019-01-30T12:01:31.906Z,9.63
2019-01-30T12:04:02.414Z,9.73
2019-01-30T12:06:32.719Z,9.53
2019-01-30T12:09:25.325Z,9.60
2019-01-30T12:12:02.028Z,8.33
2019-01-30T12:14:33.433Z,9.63
2019-01-30T12:17:08.475Z,8.27
2019-01-30T12:19:42.416Z,8.07
2019-01-30T12:22:13.030Z,7.60
2019-01-30T12:24:43.638Z,7.80
2019-01-30T12:27:14.217Z,8.00
2019-01-30T12:29:44.513Z,8.03
2019-01-30T12:32:15.421Z,6.97
2019-01-30T12:34:48.133Z,6.03
2019-01-30T12:37:27.506Z,7.67
2019-01-30T12:39:58.014Z,5.97
2019-01-30T12:42:31.464Z,4.90
2019-01-30T12:45:03.576Z,4.10
2019-01-30T12:47:33.869Z,3.60
2019-01-30T12:50:07.343Z,3.30
2019-01-30T12:52:37.154Z,3.27
2019-01-30T12:55:09.380Z,3.47
2019-01-30T12:57:39.678Z,3.20
2019-01-30T13:00:15.197Z,3.33
2019-01-30T13:02:48.253Z,3.23
2019-01-30T13:05:19.281Z,3.43
2019-01-30T13:07:49.568Z,3.10
2019-01-30T13:10:19.849Z,3.30
2019-01-30T13:12:50.141Z,3.00
2019-01-30T13:15:21.537Z,2.87
2019-01-30T13:17:52.608Z,3.10
2019-01-30T13:20:23.833Z,3.17
2019-01-30T13:22:54.139Z,2.83
2019-01-30T13:25:29.538Z,3.20
2019-01-30T13:27:59.885Z,2.90
2019-01-30T13:30:35.383Z,3.50
2019-01-30T13:33:07.785Z,3.00
2019-01-30T13:35:38.051Z,3.43
2019-01-30T13:38:08.499Z,3.13
2019-01-30T13:40:40.926Z,2.60
2019-01-30T13:43:11.436Z,2.87
2019-01-30T13:45:41.711Z,2.67
2019-01-30T13:48:19.953Z,2.43
2019-01-30T13:50:51.213Z,2.57
2019-01-30T13:53:21.513Z,2.70
2019-01-30T13:55:51.784Z,2.00
2019-01-30T13:58:22.101Z,2.23
2019-01-30T14:00:52.328Z,2.20
2019-01-30T14:03:22.684Z,2.10
2019-01-30T14:05:55.042Z,2.40
2019-01-30T14:08:25.366Z,1.83
2019-01-30T14:10:56.316Z,1.90
2019-01-30T14:13:26.760Z,1.80
2019-01-30T14:15:57.433Z,1.50
2019-01-30T14:18:27.823Z,1.63
2019-01-30T14:20:58.350Z,1.80
2019-01-30T14:23:29.381Z,2.70
2019-01-30T14:26:00.373Z,2.00
2019-01-30T14:28:31.080Z,1.70
2019-01-30T14:31:02.099Z,5.97
2019-01-30T14:33:32.814Z,3.40
2019-01-30T14:36:03.745Z,4.47
2019-01-30T14:38:34.233Z,3.70
2019-01-30T14:41:04.830Z,3.60
2019-01-30T14:43:36.141Z,3.20
2019-01-30T14:46:06.469Z,4.40
2019-01-30T14:48:36.737Z,5.03
2019-01-30T14:51:11.254Z,3.50
2019-01-30T14:53:41.517Z,3.50
2019-01-30T14:56:11.792Z,2.93
2019-01-30T14:58:42.155Z,2.70
2019-01-30T15:01:12.522Z,3.60
2019-01-30T15:03:42.979Z,3.03
2019-01-30T15:06:13.512Z,3.30
2019-01-30T15:08:45.849Z,3.77
2019-01-30T15:11:16.825Z,3.47
2019-01-30T15:13:48.558Z,4.77
2019-01-30T15:16:25.183Z,4.90
2019-01-30T15:18:58.285Z,4.33
2019-01-30T15:21:30.082Z,4.03
2019-01-30T15:24:00.931Z,5.53
2019-01-30T15:26:32.374Z,4.63
2019-01-30T15:29:04.014Z,6.37
2019-01-30T15:31:35.217Z,4.97
2019-01-30T15:34:06.619Z,5.07
2019-01-30T15:36:37.239Z,5.93
2019-01-30T15:39:16.113Z,5.23
2019-01-30T15:41:47.414Z,4.40
2019-01-30T15:44:20.965Z,4.70
2019-01-30T15:46:53.693Z,4.37
2019-01-30T15:49:25.755Z,4.90
2019-01-30T15:51:56.401Z,6.50
2019-01-30T15:54:26.747Z,7.03
2019-01-30T15:56:57.157Z,8.23
2019-01-30T15:59:27.649Z,7.33
2019-01-30T16:01:58.252Z,4.93
2019-01-30T16:04:28.617Z,5.37
2019-01-30T16:06:59.081Z,5.23
2019-01-30T16:09:29.481Z,5.07
2019-01-30T16:11:59.801Z,5.00
2019-01-30T16:14:30.113Z,5.60
2019-01-30T16:17:00.593Z,5.10
2019-01-30T16:19:31.194Z,5.20
2019-01-30T16:22:01.995Z,5.03
2019-01-30T16:24:33.285Z,4.70
2019-01-30T16:27:03.564Z,4.70
2019-01-30T16:29:43.129Z,5.20
2019-01-30T16:32:13.377Z,4.47
2019-01-30T16:34:44.669Z,4.47
2019-01-30T16:37:16.177Z,5.20
2019-01-30T16:39:46.552Z,4.63
2019-01-30T16:42:17.190Z,4.60
2019-01-30T16:44:47.740Z,4.70
2019-01-30T16:47:18.028Z,5.17
2019-01-30T16:49:54.473Z,5.00
2019-01-30T16:52:25.044Z,4.90
2019-01-30T16:54:55.337Z,4.60
2019-01-30T16:57:25.600Z,4.83
2019-01-30T16:59:56.429Z,4.90
2019-01-30T17:02:27.040Z,4.47
2019-01-30T17:04:57.324Z,4.60
2019-01-30T17:07:27.592Z,4.00
2019-01-30T17:09:57.869Z,4.70
2019-01-30T17:12:28.532Z,6.50
2019-01-30T17:15:07.196Z,5.17
2019-01-30T17:17:37.580Z,4.00
2019-01-30T17:20:12.477Z,3.50
2019-01-30T17:22:42.957Z,4.40
2019-01-30T17:25:13.767Z,3.57
2019-01-30T17:27:44.012Z,3.97
2019-01-30T17:30:18.315Z,4.10
2019-01-30T17:32:48.608Z,3.73
2019-01-30T17:35:18.983Z,4.70
2019-01-30T17:37:49.261Z,4.40
2019-01-30T17:40:20.648Z,4.60
2019-01-30T17:42:51.233Z,3.80
2019-01-30T17:45:27.714Z,4.20
2019-01-30T17:47:59.557Z,3.70
2019-01-30T17:50:29.881Z,4.27
2019-01-30T17:53:00.576Z,3.63
2019-01-30T17:55:30.791Z,3.87
2019-01-30T17:58:02.045Z,4.13
2019-01-30T18:00:40.012Z,4.57
2019-01-30T18:03:10.738Z,4.83
2019-01-30T18:05:41.061Z,4.23
2019-01-30T18:08:12.285Z,4.63
2019-01-30T18:10:43.843Z,5.00
2019-01-30T18:13:14.169Z,5.00
2019-01-30T18:15:49.746Z,5.83
2019-01-30T18:18:20.133Z,5.90
2019-01-30T18:20:50.885Z,7.00
2019-01-30T18:23:21.656Z,14.47
2019-01-30T18:25:52.414Z,19.83
2019-01-30T18:28:23.194Z,8.40
2019-01-30T18:30:53.526Z,12.13
2019-01-30T18:33:23.868Z,11.40
2019-01-30T18:35:57.773Z,7.40
2019-01-30T18:38:28.166Z,7.00
2019-01-30T18:40:58.749Z,5.97
2019-01-30T18:43:32.364Z,6.27
2019-01-30T18:46:02.767Z,6.40
2019-01-30T18:48:33.080Z,6.60
2019-01-30T18:51:03.370Z,6.07
2019-01-30T18:53:33.664Z,7.10
2019-01-30T18:56:04.738Z,7.20
2019-01-30T18:58:38.454Z,6.70
2019-01-30T19:01:09.123Z,6.40
2019-01-30T19:03:40.374Z,6.37
2019-01-30T19:06:11.512Z,6.80
2019-01-30T19:08:42.159Z,7.17
2019-01-30T19:11:12.648Z,6.73
2019-01-30T19:13:44.275Z,8.60
2019-01-30T19:16:16.486Z,8.90
2019-01-30T19:18:49.072Z,7.30
2019-01-30T19:21:20.688Z,6.77
2019-01-30T19:23:52.161Z,6.80
2019-01-30T19:26:26.423Z,8.50
2019-01-30T19:28:57.773Z,7.93
2019-01-30T19:31:31.206Z,7.10
2019-01-30T19:34:02.793Z,6.50
2019-01-30T19:36:34.560Z,5.90
2019-01-30T19:39:08.925Z,6.70
2019-01-30T19:41:40.157Z,6.00
2019-01-30T19:44:11.388Z,6.00
2019-01-30T19:46:45.802Z,5.40
2019-01-30T19:49:16.109Z,4.77
2019-01-30T19:51:46.809Z,4.60
2019-01-30T19:54:19.267Z,4.30
2019-01-30T19:56:49.556Z,4.03
2019-01-30T19:59:22.074Z,4.10
2019-01-30T20:01:52.500Z,3.77
2019-01-30T20:04:23.437Z,3.70
2019-01-30T20:06:54.233Z,3.37
2019-01-30T20:09:32.502Z,3.73
2019-01-30T20:12:06.952Z,3.43
2019-01-30T20:14:37.684Z,3.13
2019-01-30T20:17:08.110Z,3.30
2019-01-30T20:19:38.768Z,2.97
2019-01-30T20:22:10.006Z,3.20
2019-01-30T20:24:42.613Z,3.03
2019-01-30T20:27:14.041Z,2.90
2019-01-30T20:29:44.773Z,3.27
2019-01-30T20:32:15.547Z,3.17
2019-01-30T20:34:50.407Z,2.60
2019-01-30T20:37:26.347Z,2.77
2019-01-30T20:39:55.761Z,2.50
2019-01-30T20:42:28.548Z,2.83
2019-01-30T20:44:59.387Z,2.80
2019-01-30T20:47:33.033Z,2.83
2019-01-30T20:50:07.480Z,3.07
2019-01-30T20:52:40.288Z,2.40
2019-01-30T20:55:16.185Z,2.73
2019-01-30T20:57:48.121Z,2.70
2019-01-30T21:00:22.119Z,2.37
2019-01-30T21:02:53.799Z,2.40
2019-01-30T21:05:24.481Z,2.80
2019-01-30T21:07:56.124Z,2.20
2019-01-30T21:10:31.848Z,2.67
2019-01-30T21:13:04.637Z,3.93
2019-01-30T21:15:36.601Z,3.90
2019-01-30T21:18:10.893Z,3.83
2019-01-30T21:20:44.482Z,3.63
2019-01-30T21:23:17.280Z,3.17
2019-01-30T21:25:51.498Z,2.80
2019-01-30T21:28:22.143Z,3.00
2019-01-30T21:30:52.475Z,2.90
2019-01-30T21:33:26.087Z,3.10
2019-01-30T21:35:58.511Z,4.17
2019-01-30T21:38:33.683Z,2.77
2019-01-30T21:41:04.684Z,2.27
2019-01-30T21:43:35.888Z,2.27
2019-01-30T21:46:08.411Z,1.97
2019-01-30T21:48:40.535Z,2.20
2019-01-30T21:51:12.909Z,2.20
2019-01-30T21:53:43.234Z,2.03
